Time;durP1;ratioP1;P1;durP2;ratioP2;P2;SDS_P1;SDS_P2;PMS_P1;PMS_P2;Temp;Humidity;BMP_temperature;BMP_pressure;BME280_temperature;BME280_humidity;BME280_pressure;Samples;Min_cycle;Max_cycle;Signal;HPM_P1;HPM_P2
2023/05/27 00:02:18;;;;;;;11.63;10.15;;;;;;;20.05;75.90;100576.56;5111375;28;20027;-67
2023/05/27 00:04:43;;;;;;;11.65;9.82;;;;;;;20.02;75.95;100570.63;5110931;28;20032;-66
2023/05/27 00:07:09;;;;;;;15.48;10.70;;;;;;;19.98;76.29;100575.63;5111220;28;20031;-66
2023/05/27 00:09:35;;;;;;;12.48;9.90;;;;;;;19.92;76.64;100568.22;5111336;28;20023;-66
2023/05/27 00:12:01;;;;;;;13.48;9.70;;;;;;;19.93;76.98;100574.50;5110704;28;20031;-67
2023/05/27 00:14:26;;;;;;;12.48;9.82;;;;;;;19.85;76.95;100548.22;5111027;28;20157;-66
2023/05/27 00:16:51;;;;;;;15.10;9.88;;;;;;;19.94;76.63;100565.28;5111048;28;20031;-66
2023/05/27 00:19:17;;;;;;;16.42;10.93;;;;;;;19.83;76.92;100558.44;5110787;28;20027;-66
2023/05/27 00:21:43;;;;;;;14.82;9.70;;;;;;;19.81;76.87;100543.34;5111077;28;20054;-66
2023/05/27 00:24:10;;;;;;;17.80;10.88;;;;;;;19.87;76.77;100558.94;5110213;28;20472;-67
2023/05/27 00:26:35;;;;;;;17.80;10.82;;;;;;;19.84;77.47;100565.59;5109385;28;20576;-67
2023/05/27 00:29:01;;;;;;;17.77;10.77;;;;;;;19.81;77.33;100552.38;5108923;28;20047;-66
2023/05/27 00:31:26;;;;;;;13.10;10.15;;;;;;;19.84;77.05;100562.88;5109520;28;20027;-66
2023/05/27 00:33:52;;;;;;;17.42;10.55;;;;;;;19.71;77.17;100545.50;5107548;28;20020;-66
2023/05/27 00:36:17;;;;;;;13.15;10.15;;;;;;;19.80;77.30;100560.72;5109517;28;20032;-66
2023/05/27 00:38:43;;;;;;;12.85;10.40;;;;;;;19.80;77.42;100561.53;5109452;28;20023;-66
2023/05/27 00:41:10;;;;;;;16.90;10.20;;;;;;;19.80;77.69;100560.72;5109418;28;20059;-66
2023/05/27 00:43:36;;;;;;;12.98;10.25;;;;;;;19.78;77.52;100563.63;5109376;28;20039;-67
2023/05/27 00:46:01;;;;;;;15.85;10.52;;;;;;;19.74;77.68;100550.56;5109396;28;20023;-66
2023/05/27 00:48:27;;;;;;;14.48;10.02;;;;;;;19.76;77.86;100556.66;5107108;28;20027;-66
2023/05/27 00:50:52;;;;;;;20.35;11.27;;;;;;;19.77;77.72;100563.81;5104015;28;20036;-67
2023/05/27 00:53:19;;;;;;;14.68;10.25;;;;;;;19.75;77.76;100553.09;5103359;28;20028;-66
2023/05/27 00:55:45;;;;;;;13.43;10.55;;;;;;;19.76;77.84;100546.63;5111958;28;20028;-66
2023/05/27 00:58:11;;;;;;;13.57;10.55;;;;;;;19.75;78.33;100546.81;5121198;27;20372;-65
2023/05/27 01:00:38;;;;;;;16.63;9.45;;;;;;;19.72;78.41;100548.03;5115612;28;20040;-66
2023/05/27 01:03:06;;;;;;;10.93;9.57;;;;;;;19.74;78.20;100543.22;5115573;28;20491;-66
2023/05/27 01:05:32;;;;;;;13.52;9.77;;;;;;;19.65;78.15;100535.34;5115044;28;20024;-66
2023/05/27 01:08:21;;;;;;;12.85;10.43;;;;;;;19.75;78.21;100544.94;5115331;28;20483;-66
2023/05/27 01:10:49;;;;;;;16.65;10.13;;;;;;;19.66;78.14;100520.72;5106741;28;20522;-66
2023/05/27 01:13:35;;;;;;;13.52;9.40;;;;;;;19.72;78.53;100549.91;5115374;27;20492;-66
2023/05/27 01:16:05;;;;;;;13.00;9.70;;;;;;;19.70;78.73;100531.03;5114885;28;20038;-66
2023/05/27 01:18:33;;;;;;;15.30;10.80;;;;;;;19.73;79.02;100544.28;5114897;28;20156;-66
2023/05/27 01:21:12;;;;;;;17.55;10.45;;;;;;;19.68;79.11;100541.28;5114360;28;20452;-66
2023/05/27 01:23:38;;;;;;;11.73;9.73;;;;;;;19.68;79.63;100535.84;5114710;28;20051;-66
2023/05/27 01:26:05;;;;;;;14.73;10.20;;;;;;;19.69;79.48;100529.34;5114290;27;20063;-66
2023/05/27 01:28:31;;;;;;;12.30;10.45;;;;;;;19.67;79.50;100536.03;5114618;28;20453;-66
2023/05/27 01:31:03;;;;;;;12.95;9.98;;;;;;;19.70;79.86;100541.94;5114301;28;20112;-66
2023/05/27 01:33:33;;;;;;;12.88;10.25;;;;;;;19.64;79.80;100526.34;5114359;28;20024;-66
2023/05/27 01:36:05;;;;;;;13.93;9.90;;;;;;;19.65;80.07;100538.09;5114387;28;20020;-66
2023/05/27 01:38:32;;;;;;;15.57;11.07;;;;;;;19.62;79.93;100528.41;5113967;28;20035;-66
2023/05/27 01:40:59;;;;;;;16.48;10.48;;;;;;;19.61;79.44;100524.00;5113911;28;20112;-66
2023/05/27 01:43:25;;;;;;;11.52;9.73;;;;;;;19.61;79.43;100537.59;5113785;28;20572;-66
2023/05/27 01:45:51;;;;;;;14.25;10.18;;;;;;;19.50;78.75;100521.75;5113804;28;20024;-66
2023/05/27 01:48:17;;;;;;;12.77;9.68;;;;;;;19.56;78.09;100520.16;5113972;27;20023;-66
2023/05/27 01:50:42;;;;;;;15.02;10.20;;;;;;;19.55;77.67;100521.19;5113596;28;20428;-66
2023/05/27 01:53:08;;;;;;;13.18;9.70;;;;;;;19.54;77.41;100524.97;5114009;28;20028;-66
2023/05/27 01:55:33;;;;;;;14.57;9.85;;;;;;;19.52;77.41;100533.31;5113624;28;20031;-66
2023/05/27 01:57:58;;;;;;;15.57;9.88;;;;;;;19.49;77.06;100528.22;5113728;28;20110;-66
2023/05/27 02:00:24;;;;;;;11.35;9.32;;;;;;;19.51;76.98;100525.31;5113453;28;20403;-67
2023/05/27 02:02:50;;;;;;;17.60;9.77;;;;;;;19.39;76.95;100507.75;5113220;28;20032;-66
2023/05/27 02:05:15;;;;;;;10.60;9.25;;;;;;;19.47;76.77;100522.13;5113673;27;20023;-66
2023/05/27 02:07:40;;;;;;;11.60;9.50;;;;;;;19.46;76.36;100511.41;5113029;28;20032;-65
2023/05/27 02:10:06;;;;;;;14.52;10.13;;;;;;;19.50;75.62;100529.91;5113497;28;20573;-66
2023/05/27 02:12:32;;;;;;;13.60;9.40;;;;;;;19.51;75.20;100520.72;5112710;28;20086;-66
2023/05/27 02:14:57;;;;;;;13.70;9.80;;;;;;;19.52;74.58;100518.84;5112127;28;20039;-66
2023/05/27 02:17:24;;;;;;;16.98;8.80;;;;;;;19.46;74.55;100523.16;5113277;28;20024;-66
2023/05/27 02:19:50;;;;;;;14.68;9.10;;;;;;;19.52;74.09;100527.88;5112960;27;20031;-66
2023/05/27 02:22:16;;;;;;;13.50;9.00;;;;;;;19.51;74.67;100539.75;5113091;28;20092;-66
2023/05/27 02:24:41;;;;;;;16.73;9.60;;;;;;;19.51;74.36;100533.50;5113063;28;20534;-66
2023/05/27 02:27:07;;;;;;;13.93;9.10;;;;;;;19.48;74.83;100528.41;5113228;28;20032;-66
2023/05/27 02:29:32;;;;;;;11.80;9.27;;;;;;;19.44;74.85;100529.81;5111567;28;20074;-66
2023/05/27 02:31:58;;;;;;;15.07;9.07;;;;;;;19.38;75.34;100533.28;5113024;28;20043;-66
2023/05/27 02:34:23;;;;;;;11.90;8.68;;;;;;;19.39;75.49;100540.41;5112846;28;20028;-66
2023/05/27 02:36:49;;;;;;;13.38;9.13;;;;;;;19.35;75.97;100539.91;5112880;28;20020;-66
2023/05/27 02:39:14;;;;;;;12.60;9.05;;;;;;;19.33;76.21;100542.00;5112898;28;20380;-66
2023/05/27 02:41:40;;;;;;;10.10;8.88;;;;;;;19.30;76.31;100536.94;5112378;28;20031;-66
2023/05/27 02:44:05;;;;;;;18.20;9.60;;;;;;;19.29;76.51;100539.84;5113026;28;20024;-67
2023/05/27 02:46:31;;;;;;;9.57;8.57;;;;;;;19.20;76.29;100524.59;5112787;28;20028;-67
2023/05/27 02:48:56;;;;;;;10.95;8.27;;;;;;;19.25;76.52;100533.06;5112657;28;20023;-66
2023/05/27 02:51:22;;;;;;;11.13;8.70;;;;;;;19.23;76.51;100546.84;5112403;28;20024;-66
2023/05/27 02:53:48;;;;;;;21.77;8.25;;;;;;;19.25;75.92;100539.31;5112801;28;20019;-67
2023/05/27 02:56:13;;;;;;;10.63;7.68;;;;;;;19.18;76.34;100548.38;5112586;28;20024;-66
2023/05/27 02:58:39;;;;;;;9.63;7.72;;;;;;;19.17;75.58;100541.28;5112496;27;20071;-66
2023/05/27 03:01:04;;;;;;;8.45;7.55;;;;;;;19.15;75.85;100538.72;5112450;28;20043;-66
2023/05/27 03:03:30;;;;;;;11.52;7.53;;;;;;;19.20;75.50;100549.06;5111914;28;20049;-66
2023/05/27 03:05:56;;;;;;;14.15;7.80;;;;;;;19.15;76.04;100543.34;5112252;28;20045;-67
2023/05/27 03:08:21;;;;;;;21.42;8.27;;;;;;;19.15;75.66;100555.06;5110719;28;20030;-66
2023/05/27 03:10:47;;;;;;;12.07;8.23;;;;;;;19.13;75.84;100562.56;5112076;28;20032;-67
2023/05/27 03:13:13;;;;;;;12.50;8.60;;;;;;;19.13;75.71;100561.72;5112289;28;20433;-67
2023/05/27 03:15:39;;;;;;;14.85;7.93;;;;;;;19.09;76.08;100563.13;5111972;28;20039;-67
2023/05/27 03:18:04;;;;;;;14.50;8.45;;;;;;;19.10;76.47;100562.94;5111897;28;20016;-66
2023/05/27 03:20:30;;;;;;;12.23;8.18;;;;;;;19.10;77.19;100565.66;5111102;28;20334;-66
2023/05/27 03:22:56;;;;;;;12.25;7.65;;;;;;;19.08;78.27;100562.25;5112016;28;20044;-67
2023/05/27 03:25:21;;;;;;;12.18;9.20;;;;;;;19.04;78.98;100558.22;5112052;28;20391;-66
2023/05/27 03:27:47;;;;;;;12.50;9.00;;;;;;;19.03;79.57;100556.53;5112018;28;20061;-66
2023/05/27 03:30:13;;;;;;;15.85;9.45;;;;;;;19.06;79.78;100567.03;5112000;28;20047;-66
2023/05/27 03:32:38;;;;;;;17.85;9.02;;;;;;;18.92;79.49;100556.09;5111560;28;20079;-66
2023/05/27 03:35:04;;;;;;;16.13;8.55;;;;;;;18.92;80.61;100558.81;5112028;28;20032;-66
2023/05/27 03:37:29;;;;;;;14.05;9.63;;;;;;;18.93;81.25;100576.84;5111356;28;20066;-66
2023/05/27 03:39:55;;;;;;;13.40;9.32;;;;;;;18.94;81.08;100570.38;5111973;28;20034;-67
2023/05/27 03:42:20;;;;;;;12.98;8.95;;;;;;;18.92;81.59;100578.69;5112024;28;20039;-66
2023/05/27 03:44:46;;;;;;;12.30;9.18;;;;;;;18.90;82.46;100582.63;5111515;28;20035;-66
2023/05/27 03:47:11;;;;;;;15.25;8.73;;;;;;;18.90;83.32;100582.63;5111172;28;20116;-66
2023/05/27 03:49:37;;;;;;;13.30;9.43;;;;;;;18.90;83.68;100583.50;5111664;28;20495;-66
2023/05/27 03:52:02;;;;;;;13.88;9.82;;;;;;;18.86;83.85;100581.31;5111427;28;20492;-67
2023/05/27 03:54:29;;;;;;;17.73;9.77;;;;;;;18.83;84.63;100576.25;5110914;27;20460;-66
2023/05/27 03:56:54;;;;;;;13.45;9.98;;;;;;;18.89;85.18;100594.53;5111097;28;20024;-66
2023/05/27 03:59:20;;;;;;;16.10;9.93;;;;;;;18.86;85.31;100593.00;5111263;28;20463;-67
2023/05/27 04:01:46;;;;;;;14.30;9.85;;;;;;;18.79;85.88;100591.19;5110770;28;20377;-66
2023/05/27 04:04:12;;;;;;;11.98;9.75;;;;;;;18.83;85.18;100595.25;5111065;28;20028;-66
2023/05/27 04:06:38;;;;;;;15.35;10.05;;;;;;;18.83;85.31;100598.81;5111186;28;20569;-67
2023/05/27 04:09:03;;;;;;;13.88;9.35;;;;;;;18.80;85.06;100592.91;5109955;28;20042;-67
2023/05/27 04:11:30;;;;;;;12.77;9.70;;;;;;;18.83;84.31;100600.69;5110786;28;20027;-67
2023/05/27 04:13:55;;;;;;;13.48;9.60;;;;;;;18.82;84.62;100602.56;5111166;28;20054;-67
2023/05/27 04:16:21;;;;;;;11.50;8.07;;;;;;;18.75;83.99;100579.00;5111425;28;20020;-67
2023/05/27 04:18:48;;;;;;;10.77;8.77;;;;;;;18.77;84.00;100591.38;5110799;28;20094;-67
2023/05/27 04:21:17;;;;;;;9.55;8.38;;;;;;;18.88;83.40;100601.84;5109782;28;20074;-67
2023/05/27 04:23:43;;;;;;;12.27;9.65;;;;;;;18.83;82.67;100590.66;5108364;28;20081;-67
2023/05/27 04:26:08;;;;;;;12.80;9.10;;;;;;;18.89;82.77;100600.81;5111151;28;20567;-67
2023/05/27 04:28:38;;;;;;;12.80;9.10;;;;;;;18.88;82.88;100593.69;5111358;28;20517;-67
2023/05/27 04:31:04;;;;;;;13.23;9.30;;;;;;;18.91;82.76;100600.63;5110936;28;20107;-66
2023/05/27 04:33:30;;;;;;;13.98;8.75;;;;;;;18.94;82.84;100603.84;5114825;28;20107;-67
2023/05/27 04:35:56;;;;;;;13.73;9.45;;;;;;;18.88;82.95;100601.84;5114958;28;20028;-66
2023/05/27 04:38:21;;;;;;;13.65;9.20;;;;;;;18.95;82.83;100607.38;5115040;28;20410;-67
2023/05/27 04:40:56;;;;;;;11.40;9.32;;;;;;;18.92;82.76;100600.44;5114532;28;20107;-67
2023/05/27 04:43:23;;;;;;;11.90;9.45;;;;;;;18.96;82.31;100615.34;5114825;28;20039;-67
2023/05/27 04:45:48;;;;;;;12.27;8.90;;;;;;;18.99;81.47;100609.56;5114647;28;20023;-67
2023/05/27 04:48:15;;;;;;;12.43;8.75;;;;;;;18.99;81.35;100603.31;5114882;28;20008;-67
2023/05/27 04:50:41;;;;;;;14.90;9.73;;;;;;;19.05;81.15;100616.13;5114662;28;20545;-67
2023/05/27 04:53:07;;;;;;;13.07;8.60;;;;;;;18.99;81.56;100606.03;5110689;28;20015;-67
2023/05/27 04:55:33;;;;;;;12.82;9.27;;;;;;;19.05;80.66;100616.13;5114561;28;20099;-67
2023/05/27 04:57:58;;;;;;;11.68;8.48;;;;;;;19.04;80.13;100618.03;5114775;28;20073;-67
2023/05/27 05:00:36;;;;;;;14.30;8.88;;;;;;;19.03;79.99;100619.06;5114331;28;20067;-67
2023/05/27 05:03:05;;;;;;;15.88;8.32;;;;;;;19.04;79.89;100623.47;5113702;28;20027;-65
2023/05/27 05:05:31;;;;;;;15.75;8.63;;;;;;;19.06;80.31;100626.84;5113727;28;20040;-65
2023/05/27 05:07:57;;;;;;;10.80;8.30;;;;;;;19.09;80.20;100631.91;5114039;28;20114;-64
2023/05/27 05:10:23;;;;;;;14.45;9.65;;;;;;;19.08;80.07;100623.94;5113640;28;20055;-68
2023/05/27 05:12:48;;;;;;;13.68;8.75;;;;;;;19.09;80.38;100628.38;5113429;28;20516;-68
2023/05/27 05:15:14;;;;;;;16.85;9.13;;;;;;;18.99;80.20;100617.72;5113610;28;20046;-68
2023/05/27 05:17:40;;;;;;;17.65;9.48;;;;;;;19.10;80.74;100635.50;5113310;28;20029;-68
2023/05/27 05:20:06;;;;;;;14.52;8.23;;;;;;;19.12;80.71;100633.44;5113714;28;20062;-68
2023/05/27 05:22:31;;;;;;;14.80;9.35;;;;;;;19.03;80.92;100615.50;5111950;28;20084;-68
2023/05/27 05:24:57;;;;;;;13.98;8.43;;;;;;;19.17;80.73;100637.31;5107934;28;20039;-69
2023/05/27 05:27:23;;;;;;;11.38;8.73;;;;;;;19.16;80.07;100638.34;5111221;28;20042;-68
2023/05/27 05:29:49;;;;;;;16.08;8.77;;;;;;;19.17;80.22;100633.72;5110662;28;20067;-68
2023/05/27 05:32:14;;;;;;;12.90;8.68;;;;;;;19.12;79.54;100636.16;5111973;28;20071;-69
2023/05/27 05:34:40;;;;;;;12.73;8.48;;;;;;;19.20;79.11;100641.53;5111546;28;20027;-68
2023/05/27 05:37:06;;;;;;;14.20;8.50;;;;;;;19.18;79.26;100639.00;5111349;28;20448;-68
2023/05/27 05:39:32;;;;;;;9.65;7.90;;;;;;;19.25;78.78;100650.81;5110355;28;20685;-68
2023/05/27 05:41:57;;;;;;;14.68;8.70;;;;;;;19.15;78.81;100630.38;5109955;28;20365;-68
2023/05/27 05:44:24;;;;;;;14.00;8.60;;;;;;;19.28;78.58;100653.22;5111581;28;20075;-68
2023/05/27 05:46:49;;;;;;;12.45;8.38;;;;;;;19.27;78.17;100648.81;5110822;28;20039;-68
2023/05/27 05:49:15;;;;;;;14.43;8.85;;;;;;;19.29;78.04;100652.22;5111624;28;20019;-68
2023/05/27 05:51:41;;;;;;;19.80;8.70;;;;;;;19.29;77.65;100654.94;5110858;27;20043;-68
2023/05/27 05:54:06;;;;;;;15.05;7.63;;;;;;;19.30;77.79;100659.34;5111520;28;20028;-68
2023/05/27 05:56:33;;;;;;;16.33;8.77;;;;;;;19.29;77.24;100660.38;5110198;28;20118;-68
2023/05/27 05:58:58;;;;;;;12.35;8.38;;;;;;;19.31;77.21;100663.72;5111602;28;20422;-68
2023/05/27 06:01:24;;;;;;;13.68;8.43;;;;;;;19.31;77.62;100661.00;5111012;27;20052;-69
2023/05/27 06:03:49;;;;;;;14.00;8.63;;;;;;;19.19;77.38;100637.13;5111549;28;20085;-68
2023/05/27 06:06:15;;;;;;;17.38;8.93;;;;;;;19.34;77.53;100662.50;5111778;28;20042;-68
2023/05/27 06:08:40;;;;;;;14.15;8.40;;;;;;;19.35;77.53;100669.66;5110756;28;20399;-68
2023/05/27 06:11:06;;;;;;;14.35;8.75;;;;;;;19.37;76.56;100665.72;5111239;28;20019;-68
2023/05/27 06:13:31;;;;;;;13.40;8.32;;;;;;;19.35;76.80;100675.09;5110871;27;20039;-69
2023/05/27 06:15:57;;;;;;;15.77;8.40;;;;;;;19.31;76.76;100677.34;5111525;28;20047;-68
2023/05/27 06:18:22;;;;;;;15.52;8.75;;;;;;;19.33;76.87;100672.56;5111300;28;20024;-68
2023/05/27 06:20:48;;;;;;;12.75;7.82;;;;;;;19.29;76.57;100671.25;5111457;28;20020;-68
2023/05/27 06:23:13;;;;;;;10.70;8.20;;;;;;;19.38;76.87;100682.91;5111150;27;20042;-68
2023/05/27 06:25:39;;;;;;;12.27;7.80;;;;;;;19.39;77.13;100682.72;5110583;28;20023;-68
2023/05/27 06:28:05;;;;;;;18.45;9.45;;;;;;;19.36;76.92;100677.66;5110783;27;20063;-68
2023/05/27 06:30:31;;;;;;;12.70;8.38;;;;;;;19.40;77.04;100683.56;5111367;28;20496;-68
2023/05/27 06:32:57;;;;;;;13.15;8.77;;;;;;;19.47;77.36;100685.38;5103733;28;20031;-67
2023/05/27 06:35:22;;;;;;;10.82;7.88;;;;;;;19.52;76.55;100685.69;5098304;28;20043;-67
2023/05/27 06:37:48;;;;;;;11.70;7.55;;;;;;;19.54;77.15;100689.03;5110494;28;20038;-68
2023/05/27 06:40:13;;;;;;;10.45;8.48;;;;;;;19.61;77.33;100698.16;5110199;28;20034;-68
2023/05/27 06:42:39;;;;;;;11.82;7.57;;;;;;;19.68;76.51;100690.97;5108751;28;20072;-67
2023/05/27 06:45:05;;;;;;;14.45;8.40;;;;;;;19.65;77.00;100683.19;5110351;28;20155;-67
2023/05/27 06:47:30;;;;;;;11.32;7.78;;;;;;;19.73;76.41;100691.25;5110434;28;20031;-67
2023/05/27 06:49:56;;;;;;;14.45;7.85;;;;;;;19.75;75.87;100686.50;5110249;28;20492;-67
2023/05/27 06:52:21;;;;;;;12.48;7.65;;;;;;;19.85;75.45;100688.94;5110385;28;20019;-67
2023/05/27 06:54:47;;;;;;;12.82;7.95;;;;;;;19.91;75.35;100694.50;5108433;28;20416;-68
2023/05/27 06:57:13;;;;;;;9.73;6.88;;;;;;;19.99;73.75;100685.38;5108935;28;20107;-68
2023/05/27 06:59:39;;;;;;;15.25;7.43;;;;;;;19.94;73.08;100680.50;5109797;27;20535;-68
2023/05/27 07:02:05;;;;;;;11.55;6.57;;;;;;;20.00;70.63;100685.19;5110159;28;20031;-67
2023/05/27 07:04:31;;;;;;;12.27;6.78;;;;;;;20.06;69.14;100686.34;5109755;28;20054;-68
2023/05/27 07:06:56;;;;;;;16.73;7.03;;;;;;;20.03;68.58;100684.00;5109834;28;20024;-68
2023/05/27 07:09:22;;;;;;;13.05;6.30;;;;;;;20.05;67.47;100685.50;5109504;28;20110;-68
2023/05/27 07:11:48;;;;;;;14.98;6.97;;;;;;;20.11;66.85;100692.94;5108978;28;20070;-68
2023/05/27 07:14:13;;;;;;;21.85;6.93;;;;;;;20.16;67.25;100690.50;5108957;28;20044;-68
2023/05/27 07:16:38;;;;;;;13.30;7.18;;;;;;;20.13;66.35;100681.88;5109022;28;20047;-68
2023/05/27 07:19:05;;;;;;;16.40;6.75;;;;;;;20.24;66.70;100695.00;5109686;28;20019;-68
2023/05/27 07:21:30;;;;;;;13.55;6.65;;;;;;;20.24;67.02;100694.19;5109103;28;20039;-67
2023/05/27 07:23:58;;;;;;;12.52;7.20;;;;;;;20.26;65.69;100681.19;5109036;28;20036;-68
2023/05/27 07:26:25;;;;;;;13.55;6.68;;;;;;;20.32;65.69;100689.50;5109765;28;20044;-67
2023/05/27 07:28:51;;;;;;;16.77;6.53;;;;;;;20.35;65.32;100686.38;5109383;28;20027;-68
2023/05/27 07:31:17;;;;;;;16.77;7.20;;;;;;;20.51;64.69;100696.22;5109348;27;20043;-66
2023/05/27 07:33:43;;;;;;;15.50;6.63;;;;;;;20.60;63.74;100695.09;5109272;28;20019;-66
2023/05/27 07:36:08;;;;;;;18.95;7.10;;;;;;;20.69;63.14;100691.22;5109804;28;20040;-65
2023/05/27 07:38:33;;;;;;;12.63;6.38;;;;;;;20.87;62.56;100692.53;5107443;28;20020;-65
2023/05/27 07:40:59;;;;;;;17.60;6.57;;;;;;;21.02;62.74;100684.31;5108556;28;20038;-64
2023/05/27 07:43:24;;;;;;;18.13;6.85;;;;;;;21.20;62.00;100682.00;5107504;28;20032;-65
2023/05/27 07:45:50;;;;;;;13.50;6.45;;;;;;;21.37;61.45;100684.28;5109375;28;20571;-65
2023/05/27 07:48:15;;;;;;;14.88;6.85;;;;;;;21.52;60.82;100676.88;5109383;28;20038;-65
2023/05/27 07:50:41;;;;;;;21.38;6.63;;;;;;;21.83;60.27;100688.28;5109318;28;20114;-65
2023/05/27 07:53:06;;;;;;;22.52;6.57;;;;;;;22.02;58.88;100687.59;5108489;28;20094;-64
2023/05/27 07:55:31;;;;;;;26.92;7.68;;;;;;;22.18;58.03;100683.69;5107828;28;20023;-65
2023/05/27 07:57:57;;;;;;;20.60;6.25;;;;;;;22.27;57.38;100682.50;5109444;28;20050;-67
2023/05/27 08:00:22;;;;;;;17.63;5.82;;;;;;;22.37;57.09;100676.69;5110899;28;20027;-67
2023/05/27 08:02:48;;;;;;;20.02;5.95;;;;;;;22.41;56.61;100684.28;5110673;28;20035;-68
2023/05/27 08:05:13;;;;;;;15.07;6.22;;;;;;;22.44;57.11;100659.22;5110632;28;20051;-67
2023/05/27 08:07:39;;;;;;;13.50;6.45;;;;;;;22.63;56.28;100668.63;5111960;28;20106;-67
2023/05/27 08:10:05;;;;;;;21.75;5.97;;;;;;;22.72;56.20;100681.91;5111525;28;20097;-68
2023/05/27 08:12:31;;;;;;;16.40;6.05;;;;;;;22.91;55.63;100672.09;5111107;28;20052;-67
2023/05/27 08:14:56;;;;;;;15.32;6.95;;;;;;;22.94;54.76;100664.31;5111814;28;20052;-67
2023/05/27 08:17:21;;;;;;;16.00;6.22;;;;;;;23.14;54.61;100669.84;5111689;28;20712;-67
2023/05/27 08:19:47;;;;;;;12.70;5.68;;;;;;;23.39;52.32;100666.34;5111742;28;20027;-67
2023/05/27 08:22:12;;;;;;;9.55;5.38;;;;;;;23.41;52.23;100646.97;5111698;28;20020;-69
2023/05/27 08:24:38;;;;;;;12.90;6.15;;;;;;;23.45;52.61;100653.72;5111487;28;20027;-68
2023/05/27 08:27:05;;;;;;;15.93;6.00;;;;;;;23.58;52.78;100665.53;5111811;28;20518;-69
2023/05/27 08:29:32;;;;;;;16.02;7.00;;;;;;;23.67;53.01;100657.94;5111261;28;20027;-68
2023/05/27 08:31:58;;;;;;;19.90;6.03;;;;;;;23.79;52.88;100654.34;5111606;28;20039;-69
2023/05/27 08:34:25;;;;;;;11.88;5.82;;;;;;;23.82;52.46;100659.41;5111127;28;20024;-68
2023/05/27 08:36:51;;;;;;;12.60;5.40;;;;;;;23.73;51.54;100654.34;5110487;28;20448;-69
2023/05/27 08:39:16;;;;;;;14.07;5.85;;;;;;;23.59;52.15;100652.66;5111204;28;20031;-68
2023/05/27 08:41:42;;;;;;;15.07;6.40;;;;;;;23.57;51.57;100647.38;5111561;28;20036;-68
2023/05/27 08:44:08;;;;;;;18.00;6.25;;;;;;;23.53;51.77;100665.31;5111748;28;20066;-68
2023/05/27 08:46:35;;;;;;;17.50;5.88;;;;;;;23.48;51.97;100658.78;5111791;28;20036;-68
2023/05/27 08:49:01;;;;;;;12.23;5.75;;;;;;;23.47;51.42;100660.66;5111658;28;20023;-69
2023/05/27 08:51:27;;;;;;;13.18;6.22;;;;;;;23.48;51.99;100667.84;5111304;28;20032;-68
2023/05/27 08:53:53;;;;;;;10.95;5.88;;;;;;;23.41;52.07;100655.19;5111550;28;20106;-68
2023/05/27 08:56:22;;;;;;;17.45;6.75;;;;;;;23.39;51.85;100655.41;5111674;28;20031;-68
2023/05/27 08:58:48;;;;;;;14.00;6.13;;;;;;;23.33;52.56;100650.75;5109859;28;20465;-68
2023/05/27 09:01:17;;;;;;;18.77;6.40;;;;;;;23.29;52.49;100657.72;5110605;27;20062;-68
2023/05/27 09:03:44;;;;;;;11.32;5.45;;;;;;;23.38;51.93;100661.09;5110414;28;20050;-68
2023/05/27 09:06:09;;;;;;;11.57;5.32;;;;;;;23.40;52.74;100661.69;5107494;28;20077;-67
2023/05/27 09:08:35;;;;;;;64.50;9.60;;;;;;;23.34;52.04;100666.13;5108854;28;21563;-68
2023/05/27 09:11:00;;;;;;;63.00;9.50;;;;;;;23.13;52.32;100636.16;5108903;28;20039;-70
2023/05/27 09:13:31;;;;;;;32.63;6.43;;;;;;;23.09;53.27;100639.53;5111212;28;20054;-68
2023/05/27 09:15:59;;;;;;;164.85;16.77;;;;;;;23.03;53.19;100629.41;5105692;27;20062;-70
2023/05/27 09:18:27;;;;;;;21.75;6.80;;;;;;;23.20;53.32;100653.44;5112019;28;20459;-69
2023/05/27 09:20:55;;;;;;;16.27;6.30;;;;;;;23.20;53.13;100639.75;5110590;28;20039;-68
2023/05/27 09:23:20;;;;;;;13.13;6.03;;;;;;;23.23;53.04;100641.25;5109818;28;20510;-68
2023/05/27 09:25:46;;;;;;;16.80;6.03;;;;;;;23.20;53.24;100642.50;5112658;28;20036;-69
2023/05/27 09:28:19;;;;;;;13.35;5.70;;;;;;;23.23;53.12;100639.38;5112279;27;20103;-69
2023/05/27 09:30:44;;;;;;;17.25;6.35;;;;;;;23.18;53.42;100621.88;5111665;27;20111;-69
2023/05/27 09:33:10;;;;;;;18.30;5.93;;;;;;;23.32;53.13;100642.75;5115283;27;20125;-69
2023/05/27 09:35:39;;;;;;;13.73;5.93;;;;;;;23.34;53.44;100644.22;5107564;27;20028;-67
2023/05/27 09:38:06;;;;;;;11.95;5.50;;;;;;;23.37;53.61;100646.53;5110734;28;20036;-69
2023/05/27 09:40:31;;;;;;;10.20;5.43;;;;;;;23.42;53.21;100641.28;5111008;28;20036;-69
2023/05/27 09:42:56;;;;;;;13.23;4.75;;;;;;;23.51;53.33;100645.47;5110391;28;20088;-80
2023/05/27 09:45:22;;;;;;;11.57;5.22;;;;;;;23.53;53.34;100642.53;5116578;27;20474;-69
2023/05/27 09:47:51;;;;;;;11.18;5.90;;;;;;;23.59;52.33;100650.78;5111958;27;20035;-69
2023/05/27 09:50:18;;;;;;;15.57;4.95;;;;;;;23.50;52.01;100634.75;5105525;28;20016;-69
2023/05/27 09:52:44;;;;;;;11.40;5.97;;;;;;;23.54;52.31;100628.63;5110633;28;20024;-69
2023/05/27 09:55:12;;;;;;;13.40;5.63;;;;;;;23.63;52.70;100641.06;5112332;28;20132;-69
2023/05/27 09:57:39;;;;;;;11.02;4.93;;;;;;;23.69;52.54;100634.75;5112138;27;20064;-69
2023/05/27 10:00:15;;;;;;;11.75;5.38;;;;;;;23.65;52.26;100621.69;5110618;28;21021;-70
2023/05/27 10:02:49;;;;;;;13.43;6.03;;;;;;;23.78;52.13;100646.34;5111843;28;20566;-69
2023/05/27 10:05:16;;;;;;;10.32;5.75;;;;;;;23.71;51.91;100623.59;5106700;27;20164;-69
2023/05/27 10:07:44;;;;;;;7.60;5.28;;;;;;;23.86;51.43;100637.91;5094432;28;20566;-69
2023/05/27 10:10:14;;;;;;;9.45;5.20;;;;;;;23.89;51.42;100634.75;5109861;28;20039;-69
2023/05/27 10:12:41;;;;;;;11.15;5.10;;;;;;;23.93;52.07;100631.34;5111422;28;20089;-69
2023/05/27 10:15:07;;;;;;;15.30;5.72;;;;;;;23.99;51.90;100644.22;5111438;28;20075;-70
2023/05/27 10:17:47;;;;;;;11.35;5.68;;;;;;;24.05;51.28;100631.56;5111268;28;21043;-69
2023/05/27 10:20:23;;;;;;;9.93;5.80;;;;;;;24.11;50.91;100631.56;5112501;27;20059;-70
2023/05/27 10:22:48;;;;;;;14.75;5.18;;;;;;;24.15;50.75;100635.56;5103895;27;20542;-69
2023/05/27 10:25:14;;;;;;;17.02;6.07;;;;;;;24.15;50.02;100621.03;5100779;28;20039;-69
2023/05/27 10:27:46;;;;;;;8.02;5.18;;;;;;;24.24;49.76;100625.19;5110632;28;20026;-69
2023/05/27 10:30:14;;;;;;;9.70;5.85;;;;;;;24.27;50.10;100625.63;5106710;28;20067;-69
2023/05/27 10:32:57;;;;;;;8.88;5.38;;;;;;;24.34;50.14;100631.06;5110759;28;20073;-68
2023/05/27 10:35:26;;;;;;;7.40;5.07;;;;;;;24.35;49.63;100632.78;5108053;28;20130;-69
2023/05/27 10:37:52;;;;;;;18.60;6.13;;;;;;;24.25;49.46;100630.47;5116660;27;20020;-69
2023/05/27 10:40:25;;;;;;;10.95;5.65;;;;;;;24.34;49.71;100614.59;5110498;28;20043;-69
2023/05/27 10:43:01;;;;;;;12.27;5.50;;;;;;;24.44;49.79;100624.06;5109091;27;20025;-68
2023/05/27 10:45:34;;;;;;;12.80;5.82;;;;;;;24.44;48.94;100612.28;5110015;27;20034;-68
2023/05/27 10:48:00;;;;;;;8.68;4.95;;;;;;;24.48;49.33;100621.75;5108926;28;20699;-69
2023/05/27 10:50:33;;;;;;;7.07;5.28;;;;;;;24.54;48.65;100620.88;5110664;27;20027;-69
2023/05/27 10:53:01;;;;;;;13.83;5.43;;;;;;;24.55;49.24;100627.19;5109203;28;20114;-69
2023/05/27 10:55:26;;;;;;;11.30;5.25;;;;;;;24.50;49.07;100597.66;5110905;28;20610;-69
2023/05/27 10:57:52;;;;;;;12.77;5.53;;;;;;;24.60;49.24;100619.16;5110051;28;20050;-69
2023/05/27 11:00:20;;;;;;;10.98;5.53;;;;;;;24.57;50.29;100608.63;5110583;28;20034;-69
2023/05/27 11:02:46;;;;;;;12.07;5.50;;;;;;;24.55;50.16;100611.59;5109953;28;20096;-69
2023/05/27 11:05:15;;;;;;;9.27;5.15;;;;;;;24.67;50.27;100620.84;5108558;28;20027;-69
2023/05/27 11:07:41;;;;;;;13.77;5.28;;;;;;;24.64;50.03;100606.72;5109805;28;20070;-68
2023/05/27 11:10:08;;;;;;;12.35;5.35;;;;;;;24.68;49.87;100618.94;5110528;28;20051;-67
2023/05/27 11:12:34;;;;;;;11.43;5.32;;;;;;;24.74;49.26;100629.03;5109914;28;20047;-67
2023/05/27 11:14:59;;;;;;;11.63;5.68;;;;;;;24.71;49.14;100624.00;5108108;27;20039;-67